sensor_id;sensor_type;location;lat;lon;timestamp;pressure;altitude;pressure_sealevel;temperature;humidity
13068;BME280;6600;51.362;6.686;2022-12-28T00:00:50;101417.53;;;7.30;99.79
13068;BME280;6600;51.362;6.686;2022-12-28T00:03:15;101400.75;;;7.44;99.09
13068;BME280;6600;51.362;6.686;2022-12-28T00:05:41;101407.97;;;7.36;99.56
13068;BME280;6600;51.362;6.686;2022-12-28T00:08:06;101399.09;;;7.43;99.10
13068;BME280;6600;51.362;6.686;2022-12-28T00:10:31;101409.63;;;7.37;99.64
13068;BME280;6600;51.362;6.686;2022-12-28T00:12:57;101397.78;;;7.39;100.00
13068;BME280;6600;51.362;6.686;2022-12-28T00:15:22;101397.78;;;7.39;100.00
13068;BME280;6600;51.362;6.686;2022-12-28T00:17:47;101397.19;;;7.29;100.00
13068;BME280;6600;51.362;6.686;2022-12-28T00:20:13;101395.88;;;7.25;100.00
13068;BME280;6600;51.362;6.686;2022-12-28T00:22:38;101391.16;;;7.35;100.00
13068;BME280;6600;51.362;6.686;2022-12-28T00:25:04;101383.56;;;7.24;100.00
13068;BME280;6600;51.362;6.686;2022-12-28T00:27:29;101374.16;;;7.14;100.00
13068;BME280;6600;51.362;6.686;2022-12-28T00:29:55;101355.50;;;7.36;100.00
13068;BME280;6600;51.362;6.686;2022-12-28T00:32:20;101362.78;;;7.20;100.00
13068;BME280;6600;51.362;6.686;2022-12-28T00:34:46;101336.66;;;7.15;100.00
13068;BME280;6600;51.362;6.686;2022-12-28T00:37:11;101349.94;;;7.23;100.00
13068;BME280;6600;51.362;6.686;2022-12-28T00:39:36;101342.00;;;7.15;100.00
13068;BME280;6600;51.362;6.686;2022-12-28T00:42:02;101325.63;;;7.18;100.00
13068;BME280;6600;51.362;6.686;2022-12-28T00:44:27;101327.66;;;7.16;100.00
13068;BME280;6600;51.362;6.686;2022-12-28T00:46:54;101322.88;;;7.34;100.00
13068;BME280;6600;51.362;6.686;2022-12-28T00:49:19;101316.78;;;7.92;100.00
13068;BME280;6600;51.362;6.686;2022-12-28T00:51:44;101311.09;;;8.10;100.00
13068;BME280;6600;51.362;6.686;2022-12-28T00:54:09;101302.69;;;7.98;100.00
13068;BME280;6600;51.362;6.686;2022-12-28T00:56:35;101283.94;;;8.06;100.00
13068;BME280;6600;51.362;6.686;2022-12-28T00:59:00;101283.34;;;7.96;100.00
13068;BME280;6600;51.362;6.686;2022-12-28T01:01:26;101284.09;;;8.20;100.00
13068;BME280;6600;51.362;6.686;2022-12-28T01:03:55;101270.75;;;8.20;100.00
13068;BME280;6600;51.362;6.686;2022-12-28T01:06:21;101263.84;;;8.10;100.00
13068;BME280;6600;51.362;6.686;2022-12-28T01:08:46;101267.47;;;8.03;100.00
13068;BME280;6600;51.362;6.686;2022-12-28T01:11:16;101262.84;;;8.11;100.00
13068;BME280;6600;51.362;6.686;2022-12-28T01:13:42;101261.16;;;8.25;100.00
13068;BME280;6600;51.362;6.686;2022-12-28T01:16:23;101253.84;;;7.98;100.00
13068;BME280;6600;51.362;6.686;2022-12-28T01:18:52;101243.06;;;8.06;100.00
13068;BME280;6600;51.362;6.686;2022-12-28T01:21:19;101238.00;;;8.11;100.00
13068;BME280;6600;51.362;6.686;2022-12-28T01:23:46;101245.75;;;7.77;100.00
13068;BME280;6600;51.362;6.686;2022-12-28T01:26:12;101237.66;;;7.85;100.00
13068;BME280;6600;51.362;6.686;2022-12-28T01:28:38;101239.50;;;7.70;100.00
13068;BME280;6600;51.362;6.686;2022-12-28T01:31:09;101228.63;;;8.00;100.00
13068;BME280;6600;51.362;6.686;2022-12-28T01:33:35;101229.28;;;8.02;100.00
13068;BME280;6600;51.362;6.686;2022-12-28T01:36:21;101219.13;;;8.12;100.00
13068;BME280;6600;51.362;6.686;2022-12-28T01:38:50;101223.28;;;8.00;100.00
13068;BME280;6600;51.362;6.686;2022-12-28T01:41:17;101224.56;;;7.90;100.00
13068;BME280;6600;51.362;6.686;2022-12-28T01:46:37;101215.72;;;8.04;100.00
13068;BME280;6600;51.362;6.686;2022-12-28T01:52:07;101208.75;;;8.03;100.00
13068;BME280;6600;51.362;6.686;2022-12-28T01:54:40;101204.69;;;8.07;100.00
13068;BME280;6600;51.362;6.686;2022-12-28T01:57:07;101200.25;;;8.14;100.00
13068;BME280;6600;51.362;6.686;2022-12-28T01:59:37;101192.50;;;8.19;100.00
13068;BME280;6600;51.362;6.686;2022-12-28T02:42:39;101117.66;;;8.48;100.00
13068;BME280;6600;51.362;6.686;2022-12-28T02:45:05;101111.50;;;8.48;100.00
13068;BME280;6600;51.362;6.686;2022-12-28T02:47:49;101116.25;;;8.52;100.00
13068;BME280;6600;51.362;6.686;2022-12-28T02:59:13;101093.16;;;8.94;100.00
13068;BME280;6600;51.362;6.686;2022-12-28T03:02:04;101082.31;;;9.02;100.00
13068;BME280;6600;51.362;6.686;2022-12-28T03:07:44;101075.78;;;9.11;100.00
13068;BME280;6600;51.362;6.686;2022-12-28T03:10:40;101061.84;;;9.16;100.00
13068;BME280;6600;51.362;6.686;2022-12-28T03:13:21;101053.28;;;9.33;100.00
13068;BME280;6600;51.362;6.686;2022-12-28T03:16:14;101050.38;;;9.28;100.00
13068;BME280;6600;51.362;6.686;2022-12-28T03:18:43;101047.13;;;9.39;100.00
13068;BME280;6600;51.362;6.686;2022-12-28T03:21:30;101045.53;;;9.51;100.00
13068;BME280;6600;51.362;6.686;2022-12-28T03:24:16;101044.28;;;9.47;100.00
13068;BME280;6600;51.362;6.686;2022-12-28T03:27:06;101056.03;;;9.59;100.00
13068;BME280;6600;51.362;6.686;2022-12-28T03:29:57;101045.19;;;9.68;100.00
13068;BME280;6600;51.362;6.686;2022-12-28T03:32:43;101040.81;;;9.53;100.00
13068;BME280;6600;51.362;6.686;2022-12-28T03:35:09;101042.66;;;9.59;100.00
13068;BME280;6600;51.362;6.686;2022-12-28T03:37:56;101040.22;;;9.64;100.00
13068;BME280;6600;51.362;6.686;2022-12-28T03:43:02;101039.81;;;9.68;100.00
13068;BME280;6600;51.362;6.686;2022-12-28T03:45:56;101034.03;;;9.57;100.00
13068;BME280;6600;51.362;6.686;2022-12-28T03:48:25;101023.72;;;9.48;100.00
13068;BME280;6600;51.362;6.686;2022-12-28T03:50:52;101022.91;;;9.47;100.00
13068;BME280;6600;51.362;6.686;2022-12-28T03:53:23;101017.34;;;9.62;100.00
13068;BME280;6600;51.362;6.686;2022-12-28T03:55:51;101015.50;;;9.62;100.00
13068;BME280;6600;51.362;6.686;2022-12-28T03:58:16;101018.38;;;9.54;100.00
13068;BME280;6600;51.362;6.686;2022-12-28T04:00:42;101006.47;;;9.63;100.00
13068;BME280;6600;51.362;6.686;2022-12-28T04:03:07;101004.41;;;9.65;100.00
13068;BME280;6600;51.362;6.686;2022-12-28T04:05:33;101001.53;;;9.67;100.00
13068;BME280;6600;51.362;6.686;2022-12-28T04:07:58;100990.84;;;9.67;100.00
13068;BME280;6600;51.362;6.686;2022-12-28T04:10:23;100997.03;;;9.68;100.00
13068;BME280;6600;51.362;6.686;2022-12-28T04:12:53;101000.31;;;9.70;100.00
13068;BME280;6600;51.362;6.686;2022-12-28T04:15:18;101003.63;;;9.72;100.00
13068;BME280;6600;51.362;6.686;2022-12-28T04:17:44;100987.56;;;9.85;100.00
13068;BME280;6600;51.362;6.686;2022-12-28T04:20:09;100987.16;;;9.88;100.00
13068;BME280;6600;51.362;6.686;2022-12-28T04:22:34;100984.72;;;9.93;100.00
13068;BME280;6600;51.362;6.686;2022-12-28T04:25:00;100981.22;;;9.99;100.00
13068;BME280;6600;51.362;6.686;2022-12-28T04:27:25;100976.88;;;9.98;100.00
13068;BME280;6600;51.362;6.686;2022-12-28T04:29:50;100971.31;;;9.93;100.00
13068;BME280;6600;51.362;6.686;2022-12-28T04:32:16;100962.47;;;9.99;100.00
13068;BME280;6600;51.362;6.686;2022-12-28T04:34:41;100971.09;;;10.01;100.00
13068;BME280;6600;51.362;6.686;2022-12-28T04:37:06;100962.47;;;9.99;100.00
13068;BME280;6600;51.362;6.686;2022-12-28T04:39:32;100962.66;;;10.04;100.00
13068;BME280;6600;51.362;6.686;2022-12-28T04:41:57;100955.47;;;10.11;100.00
13068;BME280;6600;51.362;6.686;2022-12-28T04:44:22;100953.63;;;10.18;100.00
13068;BME280;6600;51.362;6.686;2022-12-28T04:46:48;100942.72;;;10.06;100.00
13068;BME280;6600;51.362;6.686;2022-12-28T04:49:13;100948.88;;;9.94;100.00
13068;BME280;6600;51.362;6.686;2022-12-28T04:51:38;100941.88;;;10.06;100.00
13068;BME280;6600;51.362;6.686;2022-12-28T04:54:04;100940.44;;;10.10;100.00
13068;BME280;6600;51.362;6.686;2022-12-28T04:56:30;100955.06;;;10.21;100.00
13068;BME280;6600;51.362;6.686;2022-12-28T04:58:57;100941.47;;;10.22;100.00
13068;BME280;6600;51.362;6.686;2022-12-28T05:01:23;100953.00;;;10.03;100.00
13068;BME280;6600;51.362;6.686;2022-12-28T05:03:51;100941.47;;;10.09;100.00
13068;BME280;6600;51.362;6.686;2022-12-28T05:06:18;100943.16;;;10.17;100.00
13068;BME280;6600;51.362;6.686;2022-12-28T05:08:44;100949.94;;;10.19;100.00
13068;BME280;6600;51.362;6.686;2022-12-28T05:11:18;100927.44;;;10.07;100.00
13068;BME280;6600;51.362;6.686;2022-12-28T05:13:44;100936.94;;;10.09;100.00
13068;BME280;6600;51.362;6.686;2022-12-28T05:16:13;100935.53;;;10.20;100.00
13068;BME280;6600;51.362;6.686;2022-12-28T05:18:38;100929.31;;;10.13;100.00
13068;BME280;6600;51.362;6.686;2022-12-28T05:21:05;100939.00;;;10.27;100.00
13068;BME280;6600;51.362;6.686;2022-12-28T05:23:32;100927.06;;;10.23;100.00
13068;BME280;6600;51.362;6.686;2022-12-28T05:25:58;100929.50;;;10.38;100.00
13068;BME280;6600;51.362;6.686;2022-12-28T05:28:24;100944.75;;;10.24;100.00
13068;BME280;6600;51.362;6.686;2022-12-28T05:30:50;100928.06;;;10.35;100.00
13068;BME280;6600;51.362;6.686;2022-12-28T05:33:15;100932.41;;;10.30;100.00
13068;BME280;6600;51.362;6.686;2022-12-28T05:35:41;100935.28;;;10.28;100.00
13068;BME280;6600;51.362;6.686;2022-12-28T05:38:06;100930.97;;;10.27;100.00
13068;BME280;6600;51.362;6.686;2022-12-28T05:40:32;100936.50;;;10.39;100.00
13068;BME280;6600;51.362;6.686;2022-12-28T05:42:57;100929.13;;;10.21;100.00
13068;BME280;6600;51.362;6.686;2022-12-28T05:45:23;100932.41;;;10.30;100.00
13068;BME280;6600;51.362;6.686;2022-12-28T05:47:48;100919.63;;;10.25;100.00
13068;BME280;6600;51.362;6.686;2022-12-28T05:50:14;100919.25;;;10.15;100.00
13068;BME280;6600;51.362;6.686;2022-12-28T05:52:39;100922.94;;;10.14;100.00
13068;BME280;6600;51.362;6.686;2022-12-28T05:55:05;100909.56;;;10.14;100.00
13068;BME280;6600;51.362;6.686;2022-12-28T05:57:30;100911.41;;;10.20;100.00
13068;BME280;6600;51.362;6.686;2022-12-28T05:59:56;100913.44;;;10.31;100.00
13068;BME280;6600;51.362;6.686;2022-12-28T06:02:21;100915.31;;;10.24;100.00
13068;BME280;6600;51.362;6.686;2022-12-28T06:04:49;100918.41;;;10.21;100.00
13068;BME280;6600;51.362;6.686;2022-12-28T06:07:15;100911.41;;;10.13;100.00
13068;BME280;6600;51.362;6.686;2022-12-28T06:09:40;100903.34;;;10.07;100.00
13068;BME280;6600;51.362;6.686;2022-12-28T06:12:05;100909.53;;;10.21;100.00
13068;BME280;6600;51.362;6.686;2022-12-28T06:14:31;100894.94;;;10.17;100.00
13068;BME280;6600;51.362;6.686;2022-12-28T06:16:56;100891.19;;;10.37;100.00
13068;BME280;6600;51.362;6.686;2022-12-28T06:19:21;100881.72;;;10.28;100.00
13068;BME280;6600;51.362;6.686;2022-12-28T06:21:47;100887.88;;;10.35;100.00
13068;BME280;6600;51.362;6.686;2022-12-28T06:24:12;100885.22;;;10.35;100.00
13068;BME280;6600;51.362;6.686;2022-12-28T06:26:39;100887.88;;;10.35;100.00
13068;BME280;6600;51.362;6.686;2022-12-28T06:29:05;100897.59;;;10.36;100.00
13068;BME280;6600;51.362;6.686;2022-12-28T06:31:33;100890.38;;;10.30;100.00
13068;BME280;6600;51.362;6.686;2022-12-28T06:34:00;100896.53;;;10.44;100.00
13068;BME280;6600;51.362;6.686;2022-12-28T06:36:31;100896.53;;;10.44;100.00
13068;BME280;6600;51.362;6.686;2022-12-28T06:38:58;100891.41;;;10.36;100.00
13068;BME280;6600;51.362;6.686;2022-12-28T06:41:25;100897.38;;;10.31;100.00
13068;BME280;6600;51.362;6.686;2022-12-28T06:43:51;100900.28;;;10.23;100.00
13068;BME280;6600;51.362;6.686;2022-12-28T06:46:18;100904.78;;;10.36;100.00
13068;BME280;6600;51.362;6.686;2022-12-28T06:48:44;100900.25;;;10.36;100.00
13068;BME280;6600;51.362;6.686;2022-12-28T06:51:14;100892.44;;;10.28;100.00
13068;BME280;6600;51.362;6.686;2022-12-28T06:53:40;100896.56;;;10.37;100.00
13068;BME280;6600;51.362;6.686;2022-12-28T06:56:09;100901.06;;;10.43;100.00
13068;BME280;6600;51.362;6.686;2022-12-28T06:58:35;100895.97;;;10.22;100.00
13068;BME280;6600;51.362;6.686;2022-12-28T07:01:05;100886.06;;;10.23;100.00
13068;BME280;6600;51.362;6.686;2022-12-28T07:03:31;100888.13;;;10.27;100.00
13068;BME280;6600;51.362;6.686;2022-12-28T07:06:00;100896.13;;;10.40;100.00
13068;BME280;6600;51.362;6.686;2022-12-28T07:08:26;100890.34;;;10.43;100.00
13068;BME280;6600;51.362;6.686;2022-12-28T07:10:51;100893.25;;;10.35;100.00
13068;BME280;6600;51.362;6.686;2022-12-28T07:13:16;100891.00;;;10.32;100.00
13068;BME280;6600;51.362;6.686;2022-12-28T07:15:42;100886.66;;;10.31;100.00
13068;BME280;6600;51.362;6.686;2022-12-28T07:18:07;100897.78;;;10.35;100.00
13068;BME280;6600;51.362;6.686;2022-12-28T07:20:32;100889.53;;;10.36;100.00
13068;BME280;6600;51.362;6.686;2022-12-28T07:22:58;100887.50;;;10.25;100.00
13068;BME280;6600;51.362;6.686;2022-12-28T07:25:23;100885.84;;;10.24;100.00
13068;BME280;6600;51.362;6.686;2022-12-28T07:27:48;100874.72;;;10.21;100.00
13068;BME280;6600;51.362;6.686;2022-12-28T07:30:14;100880.09;;;10.27;100.00
13068;BME280;6600;51.362;6.686;2022-12-28T07:32:39;100881.72;;;10.35;100.00
13068;BME280;6600;51.362;6.686;2022-12-28T07:35:05;100879.66;;;10.37;100.00
13068;BME280;6600;51.362;6.686;2022-12-28T07:37:31;100877.56;;;10.45;100.00
13068;BME280;6600;51.362;6.686;2022-12-28T07:39:56;100878.66;;;10.18;100.00
13068;BME280;6600;51.362;6.686;2022-12-28T07:42:22;100864.81;;;10.28;100.00
13068;BME280;6600;51.362;6.686;2022-12-28T07:44:47;100869.78;;;10.37;100.00
13068;BME280;6600;51.362;6.686;2022-12-28T07:47:13;100880.50;;;10.37;100.00
13068;BME280;6600;51.362;6.686;2022-12-28T07:49:39;100872.66;;;10.29;100.00
13068;BME280;6600;51.362;6.686;2022-12-28T07:52:04;100879.19;;;10.53;100.00
13068;BME280;6600;51.362;6.686;2022-12-28T07:54:30;100860.66;;;10.45;100.00
13068;BME280;6600;51.362;6.686;2022-12-28T07:56:55;100878.84;;;10.36;100.00
13068;BME280;6600;51.362;6.686;2022-12-28T07:59:20;100872.16;;;10.58;100.00
13068;BME280;6600;51.362;6.686;2022-12-28T08:01:49;100874.22;;;10.56;100.00
13068;BME280;6600;51.362;6.686;2022-12-28T08:04:14;100869.72;;;10.50;100.00
13068;BME280;6600;51.362;6.686;2022-12-28T08:06:42;100878.31;;;10.65;100.00
13068;BME280;6600;51.362;6.686;2022-12-28T08:09:10;100878.94;;;10.68;100.00
13068;BME280;6600;51.362;6.686;2022-12-28T08:11:38;100874.22;;;10.63;100.00
13068;BME280;6600;51.362;6.686;2022-12-28T08:14:05;100867.78;;;10.71;100.00
13068;BME280;6600;51.362;6.686;2022-12-28T08:16:34;100864.75;;;10.60;100.00
13068;BME280;6600;51.362;6.686;2022-12-28T08:19:01;100862.22;;;10.65;100.00
13068;BME280;6600;51.362;6.686;2022-12-28T08:21:42;100850.41;;;10.80;100.00
13068;BME280;6600;51.362;6.686;2022-12-28T08:24:12;100847.34;;;10.76;100.00
13068;BME280;6600;51.362;6.686;2022-12-28T08:26:39;100851.88;;;10.76;100.00
13068;BME280;6600;51.362;6.686;2022-12-28T08:29:08;100850.25;;;10.75;100.00
13068;BME280;6600;51.362;6.686;2022-12-28T08:31:37;100851.94;;;10.62;100.00
13068;BME280;6600;51.362;6.686;2022-12-28T08:34:05;100853.31;;;10.85;100.00
13068;BME280;6600;51.362;6.686;2022-12-28T08:36:30;100851.50;;;10.72;100.00
13068;BME280;6600;51.362;6.686;2022-12-28T08:38:57;100850.81;;;10.83;100.00
13068;BME280;6600;51.362;6.686;2022-12-28T08:41:25;100854.75;;;10.81;100.00
13068;BME280;6600;51.362;6.686;2022-12-28T08:43:51;100862.16;;;10.85;100.00
13068;BME280;6600;51.362;6.686;2022-12-28T08:46:29;100853.06;;;10.93;100.00
13068;BME280;6600;51.362;6.686;2022-12-28T08:48:55;100855.94;;;10.91;100.00
13068;BME280;6600;51.362;6.686;2022-12-28T08:51:33;100848.09;;;10.90;100.00
13068;BME280;6600;51.362;6.686;2022-12-28T08:53:59;100855.50;;;10.94;100.00
13068;BME280;6600;51.362;6.686;2022-12-28T08:56:28;100858.03;;;10.89;100.00
13068;BME280;6600;51.362;6.686;2022-12-28T08:58:55;100861.16;;;10.80;100.00
13068;BME280;6600;51.362;6.686;2022-12-28T09:01:26;100855.13;;;10.91;100.00
13068;BME280;6600;51.362;6.686;2022-12-28T09:03:54;100848.97;;;10.84;100.00
13068;BME280;6600;51.362;6.686;2022-12-28T09:06:22;100850.47;;;11.11;100.00
13068;BME280;6600;51.362;6.686;2022-12-28T09:08:53;100855.63;;;11.12;100.00
13068;BME280;6600;51.362;6.686;2022-12-28T09:11:19;100843.03;;;11.13;100.00
13068;BME280;6600;51.362;6.686;2022-12-28T09:13:44;100851.72;;;11.08;100.00
13068;BME280;6600;51.362;6.686;2022-12-28T09:16:13;100847.16;;;11.15;100.00
13068;BME280;6600;51.362;6.686;2022-12-28T09:18:40;100850.47;;;11.11;100.00
13068;BME280;6600;51.362;6.686;2022-12-28T09:21:08;100853.34;;;11.16;100.00
13068;BME280;6600;51.362;6.686;2022-12-28T09:23:35;100863.09;;;11.35;100.00
13068;BME280;6600;51.362;6.686;2022-12-28T09:26:09;100851.00;;;11.26;100.00
13068;BME280;6600;51.362;6.686;2022-12-28T09:28:35;100857.03;;;11.15;100.00
13068;BME280;6600;51.362;6.686;2022-12-28T09:31:06;100858.41;;;11.24;100.00
13068;BME280;6600;51.362;6.686;2022-12-28T09:33:32;100859.91;;;11.20;100.00
13068;BME280;6600;51.362;6.686;2022-12-28T09:36:32;100860.25;;;11.30;100.00
13068;BME280;6600;51.362;6.686;2022-12-28T09:39:00;100859.25;;;11.25;100.00
13068;BME280;6600;51.362;6.686;2022-12-28T09:41:45;100867.88;;;11.33;100.00
13068;BME280;6600;51.362;6.686;2022-12-28T09:46:42;100851.59;;;11.28;100.00
13068;BME280;6600;51.362;6.686;2022-12-28T09:49:16;100853.16;;;11.42;100.00
13068;BME280;6600;51.362;6.686;2022-12-28T09:51:50;100854.91;;;11.30;100.00
13068;BME280;6600;51.362;6.686;2022-12-28T09:54:17;100857.81;;;11.22;100.00
13068;BME280;6600;51.362;6.686;2022-12-28T09:56:43;100849.59;;;11.48;100.00
13068;BME280;6600;51.362;6.686;2022-12-28T09:59:13;100858.06;;;11.45;100.00
13068;BME280;6600;51.362;6.686;2022-12-28T10:01:41;100842.81;;;11.46;100.00
13068;BME280;6600;51.362;6.686;2022-12-28T10:04:10;100854.34;;;11.46;100.00
13068;BME280;6600;51.362;6.686;2022-12-28T10:06:36;100851.69;;;11.46;100.00
13068;BME280;6600;51.362;6.686;2022-12-28T10:09:04;100848.63;;;11.68;100.00
13068;BME280;6600;51.362;6.686;2022-12-28T10:11:39;100843.97;;;11.56;100.00
13068;BME280;6600;51.362;6.686;2022-12-28T10:14:26;100845.09;;;11.74;100.00
13068;BME280;6600;51.362;6.686;2022-12-28T10:16:52;100842.31;;;11.55;100.00
13068;BME280;6600;51.362;6.686;2022-12-28T10:19:22;100834.53;;;11.47;100.00
13068;BME280;6600;51.362;6.686;2022-12-28T10:21:57;100817.13;;;11.56;100.00
13068;BME280;6600;51.362;6.686;2022-12-28T10:24:23;100835.47;;;11.59;100.00
13068;BME280;6600;51.362;6.686;2022-12-28T10:26:49;100824.53;;;11.61;100.00
13068;BME280;6600;51.362;6.686;2022-12-28T10:29:22;100815.47;;;11.55;100.00
13068;BME280;6600;51.362;6.686;2022-12-28T10:32:03;100820.75;;;11.69;100.00
13068;BME280;6600;51.362;6.686;2022-12-28T10:34:30;100810.81;;;11.69;100.00
13068;BME280;6600;51.362;6.686;2022-12-28T10:37:03;100812.91;;;11.67;100.00
13068;BME280;6600;51.362;6.686;2022-12-28T10:39:30;100799.28;;;11.69;100.00
13068;BME280;6600;51.362;6.686;2022-12-28T10:41:57;100801.97;;;11.69;100.00
13068;BME280;6600;51.362;6.686;2022-12-28T10:44:34;100798.19;;;11.76;100.00
13068;BME280;6600;51.362;6.686;2022-12-28T10:47:02;100805.31;;;12.07;100.00
13068;BME280;6600;51.362;6.686;2022-12-28T10:49:36;100799.19;;;12.00;100.00
13068;BME280;6600;51.362;6.686;2022-12-28T10:54:40;100790.38;;;12.11;100.00
13068;BME280;6600;51.362;6.686;2022-12-28T10:57:15;100795.78;;;11.93;100.00
13068;BME280;6600;51.362;6.686;2022-12-28T10:59:41;100786.56;;;12.00;100.00
13068;BME280;6600;51.362;6.686;2022-12-28T11:02:26;100789.19;;;12.07;100.00
13068;BME280;6600;51.362;6.686;2022-12-28T11:04:54;100785.03;;;11.93;100.00
13068;BME280;6600;51.362;6.686;2022-12-28T11:07:28;100782.78;;;12.08;100.00
13068;BME280;6600;51.362;6.686;2022-12-28T11:10:33;100774.88;;;12.13;100.00
13068;BME280;6600;51.362;6.686;2022-12-28T11:12:59;100776.72;;;11.94;100.00
13068;BME280;6600;51.362;6.686;2022-12-28T11:15:28;100772.69;;;12.03;100.00
13068;BME280;6600;51.362;6.686;2022-12-28T11:17:56;100769.22;;;12.03;100.00
13068;BME280;6600;51.362;6.686;2022-12-28T11:20:34;100771.44;;;12.06;100.00
13068;BME280;6600;51.362;6.686;2022-12-28T11:23:03;100764.72;;;12.15;100.00
13068;BME280;6600;51.362;6.686;2022-12-28T11:25:31;100756.22;;;12.18;99.46
13068;BME280;6600;51.362;6.686;2022-12-28T11:27:58;100766.38;;;11.98;100.00
13068;BME280;6600;51.362;6.686;2022-12-28T11:30:24;100753.16;;;11.96;100.00
13068;BME280;6600;51.362;6.686;2022-12-28T11:32:52;100759.50;;;12.02;100.00
13068;BME280;6600;51.362;6.686;2022-12-28T11:35:22;100757.09;;;11.94;100.00
13068;BME280;6600;51.362;6.686;2022-12-28T11:37:59;100750.47;;;11.96;99.81
13068;BME280;6600;51.362;6.686;2022-12-28T11:48:47;100739.81;;;11.90;100.00
13068;BME280;6600;51.362;6.686;2022-12-28T11:51:17;100732.72;;;11.77;100.00
13068;BME280;6600;51.362;6.686;2022-12-28T11:56:12;100735.03;;;11.92;100.00
13068;BME280;6600;51.362;6.686;2022-12-28T12:09:38;100733.69;;;12.01;99.20
13068;BME280;6600;51.362;6.686;2022-12-28T12:14:42;100714.47;;;11.86;98.96
13068;BME280;6600;51.362;6.686;2022-12-28T12:17:13;100719.47;;;11.82;98.92
13068;BME280;6600;51.362;6.686;2022-12-28T12:19:46;100704.03;;;11.96;98.91
13068;BME280;6600;51.362;6.686;2022-12-28T12:22:19;100709.53;;;12.01;98.41
13068;BME280;6600;51.362;6.686;2022-12-28T12:24:49;100720.88;;;12.03;98.53
13068;BME280;6600;51.362;6.686;2022-12-28T12:30:13;100716.31;;;12.03;96.77
13068;BME280;6600;51.362;6.686;2022-12-28T12:32:50;100718.03;;;11.80;97.36
13068;BME280;6600;51.362;6.686;2022-12-28T12:35:19;100704.91;;;11.90;97.95
13068;BME280;6600;51.362;6.686;2022-12-28T12:37:55;100697.91;;;11.89;98.30
13068;BME280;6600;51.362;6.686;2022-12-28T12:41:04;100692.53;;;11.89;97.20
13068;BME280;6600;51.362;6.686;2022-12-28T12:52:54;100671.19;;;11.76;96.56
13068;BME280;6600;51.362;6.686;2022-12-28T12:58:12;100665.94;;;11.62;97.13
13068;BME280;6600;51.362;6.686;2022-12-28T13:03:38;100651.94;;;11.60;98.35
13068;BME280;6600;51.362;6.686;2022-12-28T13:06:05;100646.84;;;11.52;99.18
13068;BME280;6600;51.362;6.686;2022-12-28T13:11:10;100634.78;;;11.43;99.78
13068;BME280;6600;51.362;6.686;2022-12-28T13:13:37;100632.84;;;11.50;99.92
13068;BME280;6600;51.362;6.686;2022-12-28T13:16:08;100639.25;;;11.49;99.19
13068;BME280;6600;51.362;6.686;2022-12-28T13:18:34;100635.91;;;11.54;98.72
13068;BME280;6600;51.362;6.686;2022-12-28T13:21:03;100631.00;;;11.51;98.54
13068;BME280;6600;51.362;6.686;2022-12-28T13:23:31;100624.97;;;11.37;98.39
13068;BME280;6600;51.362;6.686;2022-12-28T13:26:00;100612.19;;;11.69;97.58
13068;BME280;6600;51.362;6.686;2022-12-28T13:28:29;100623.44;;;11.41;98.11
13068;BME280;6600;51.362;6.686;2022-12-28T13:31:15;100618.09;;;11.59;97.69
13068;BME280;6600;51.362;6.686;2022-12-28T13:33:41;100617.41;;;11.46;97.59
13068;BME280;6600;51.362;6.686;2022-12-28T13:36:12;100604.25;;;11.44;97.60
13068;BME280;6600;51.362;6.686;2022-12-28T13:38:37;100600.78;;;11.55;97.11
13068;BME280;6600;51.362;6.686;2022-12-28T13:41:03;100603.34;;;11.50;96.94
13068;BME280;6600;51.362;6.686;2022-12-28T13:46:16;100592.91;;;11.60;96.12
13068;BME280;6600;51.362;6.686;2022-12-28T13:48:45;100577.78;;;11.48;97.10
13068;BME280;6600;51.362;6.686;2022-12-28T13:51:16;100575.22;;;11.53;96.84
13068;BME280;6600;51.362;6.686;2022-12-28T13:53:46;100584.78;;;11.49;97.35
13068;BME280;6600;51.362;6.686;2022-12-28T13:56:13;100588.44;;;11.54;97.16
13068;BME280;6600;51.362;6.686;2022-12-28T13:58:54;100584.56;;;11.50;97.36
13068;BME280;6600;51.362;6.686;2022-12-28T14:01:23;100583.53;;;11.51;97.53
13068;BME280;6600;51.362;6.686;2022-12-28T14:03:58;100577.41;;;11.44;97.65
13068;BME280;6600;51.362;6.686;2022-12-28T14:06:24;100575.78;;;11.43;97.74
13068;BME280;6600;51.362;6.686;2022-12-28T14:08:51;100576.50;;;11.50;97.76
13068;BME280;6600;51.362;6.686;2022-12-28T14:11:17;100574.41;;;11.52;97.51
13068;BME280;6600;51.362;6.686;2022-12-28T14:13:43;100571.97;;;11.51;96.91
13068;BME280;6600;51.362;6.686;2022-12-28T14:16:08;100562.84;;;11.52;97.23
13068;BME280;6600;51.362;6.686;2022-12-28T14:18:34;100558.69;;;11.56;97.09
13068;BME280;6600;51.362;6.686;2022-12-28T14:21:01;100557.56;;;11.63;97.19
13068;BME280;6600;51.362;6.686;2022-12-28T14:23:30;100553.09;;;11.57;97.43
13068;BME280;6600;51.362;6.686;2022-12-28T14:26:00;100538.09;;;11.68;97.23
13068;BME280;6600;51.362;6.686;2022-12-28T14:28:39;100536.44;;;11.67;96.99
13068;BME280;6600;51.362;6.686;2022-12-28T14:31:08;100526.84;;;11.59;96.84
13068;BME280;6600;51.362;6.686;2022-12-28T14:33:36;100528.50;;;11.60;97.08
13068;BME280;6600;51.362;6.686;2022-12-28T14:36:06;100528.78;;;11.52;96.55
13068;BME280;6600;51.362;6.686;2022-12-28T14:38:39;100517.31;;;11.63;96.76
13068;BME280;6600;51.362;6.686;2022-12-28T14:41:16;100508.97;;;11.72;96.18
13068;BME280;6600;51.362;6.686;2022-12-28T14:43:42;100510.50;;;11.79;95.69
13068;BME280;6600;51.362;6.686;2022-12-28T14:46:16;100504.47;;;11.65;95.85
13068;BME280;6600;51.362;6.686;2022-12-28T14:48:41;100500.28;;;11.70;95.75
13068;BME280;6600;51.362;6.686;2022-12-28T14:53:40;100489.53;;;11.70;95.98
13068;BME280;6600;51.362;6.686;2022-12-28T14:56:09;100485.91;;;11.64;95.32
13068;BME280;6600;51.362;6.686;2022-12-28T14:58:42;100486.03;;;11.69;95.12
13068;BME280;6600;51.362;6.686;2022-12-28T15:01:10;100476.47;;;11.61;94.71